Time;durP1;ratioP1;P1;durP2;ratioP2;P2;SDS_P1;SDS_P2;PMS_P1;PMS_P2;Temp;Humidity;BMP_temperature;BMP_pressure;BME280_temperature;BME280_humidity;BME280_pressure;Samples;Min_cycle;Max_cycle;Signal;HPM_P1;HPM_P2
2021/10/17 00:00:16;;;;;;;10.37;5.97;;;8.10;78.30;;;;;;5055812;28;20434;-67
2021/10/17 00:02:43;;;;;;;12.17;5.77;;;8.10;78.60;;;;;;5055922;28;20439;-67
2021/10/17 00:05:11;;;;;;;9.20;5.00;;;8.00;78.40;;;;;;5055753;28;20527;-68
2021/10/17 00:07:40;;;;;;;13.67;6.27;;;8.00;79.20;;;;;;5055376;28;20974;-68
2021/10/17 00:10:10;;;;;;;11.87;6.50;;;8.00;79.60;;;;;;5055563;28;20473;-68
2021/10/17 00:12:37;;;;;;;10.30;6.27;;;8.00;79.80;;;;;;5055595;28;20452;-68
2021/10/17 00:15:06;;;;;;;14.93;6.17;;;8.00;79.70;;;;;;5055554;28;20465;-68
2021/10/17 00:17:33;;;;;;;10.33;5.80;;;8.00;80.30;;;;;;5055721;28;20946;-68
2021/10/17 00:20:00;;;;;;;9.37;5.80;;;8.00;80.10;;;;;;5055845;28;20452;-67
2021/10/17 00:22:27;;;;;;;11.07;5.53;;;8.00;79.70;;;;;;5055330;28;20452;-68
2021/10/17 00:24:55;;;;;;;7.90;5.70;;;8.00;79.90;;;;;;5055279;28;20994;-67
2021/10/17 00:27:21;;;;;;;13.77;7.00;;;8.00;80.00;;;;;;5055183;28;21025;-68
2021/10/17 00:29:48;;;;;;;9.70;6.60;;;8.00;80.00;;;;;;5055412;28;20923;-68
2021/10/17 00:32:15;;;;;;;12.67;6.70;;;8.00;80.20;;;;;;5055394;28;20563;-68
2021/10/17 00:34:43;;;;;;;10.73;6.47;;;8.00;80.40;;;;;;5054998;28;20998;-68
2021/10/17 00:37:10;;;;;;;12.10;6.70;;;8.00;80.30;;;;;;5055312;28;20446;-68
2021/10/17 00:39:37;;;;;;;13.93;7.30;;;8.10;80.40;;;;;;5055247;28;20449;-68
2021/10/17 00:42:05;;;;;;;11.70;6.30;;;8.10;80.10;;;;;;5055058;28;20450;-67
2021/10/17 00:44:34;;;;;;;12.63;6.77;;;8.00;79.80;;;;;;5054839;28;20975;-68
2021/10/17 00:47:00;;;;;;;9.73;5.90;;;8.00;79.90;;;;;;5054650;28;20450;-68
2021/10/17 00:49:27;;;;;;;21.13;7.50;;;8.00;79.90;;;;;;5054913;28;20460;-68
2021/10/17 00:51:54;;;;;;;12.77;7.17;;;8.00;80.00;;;;;;5054794;28;20485;-68
2021/10/17 00:54:21;;;;;;;9.23;6.60;;;8.00;79.80;;;;;;5054750;28;20469;-68
2021/10/17 00:56:48;;;;;;;17.23;7.10;;;8.00;79.80;;;;;;5054605;28;20442;-68
2021/10/17 00:59:16;;;;;;;10.07;6.70;;;8.00;79.70;;;;;;5054653;28;20795;-68
2021/10/17 01:01:43;;;;;;;13.90;6.50;;;7.90;79.10;;;;;;5054698;28;20448;-68
2021/10/17 01:04:09;;;;;;;13.03;8.10;;;7.90;79.40;;;;;;5054547;28;20473;-68
2021/10/17 01:06:37;;;;;;;13.77;7.07;;;7.90;79.80;;;;;;5054550;28;20450;-68
2021/10/17 01:09:04;;;;;;;13.50;6.70;;;7.90;80.00;;;;;;5054548;28;20456;-68
2021/10/17 01:11:40;;;;;;;20.30;6.37;;;7.80;79.80;;;;;;5054092;28;20481;-68
2021/10/17 01:14:09;;;;;;;16.10;7.50;;;7.80;79.80;;;;;;5054421;28;20466;-68
2021/10/17 01:16:39;;;;;;;20.43;7.33;;;7.80;79.80;;;;;;5054361;28;20457;-68
2021/10/17 01:19:06;;;;;;;15.70;6.27;;;7.80;79.90;;;;;;5054965;28;20434;-68
2021/10/17 01:21:34;;;;;;;16.10;7.37;;;7.70;80.00;;;;;;5054251;28;20437;-68
2021/10/17 01:24:01;;;;;;;20.17;8.27;;;7.70;80.00;;;;;;5054259;28;20477;-68
2021/10/17 01:26:27;;;;;;;13.00;6.30;;;7.70;80.20;;;;;;5054237;28;20814;-67
2021/10/17 01:28:54;;;;;;;13.70;6.23;;;7.70;80.10;;;;;;5054181;28;20507;-67
2021/10/17 01:31:21;;;;;;;16.83;7.83;;;7.70;79.80;;;;;;5053977;28;20486;-67
2021/10/17 01:33:48;;;;;;;15.10;6.50;;;7.70;79.70;;;;;;5054027;28;20480;-68
2021/10/17 01:36:16;;;;;;;11.80;6.20;;;7.70;79.70;;;;;;5054063;28;20433;-68
2021/10/17 01:38:44;;;;;;;19.63;7.10;;;7.60;79.80;;;;;;5053671;28;20901;-68
2021/10/17 01:41:10;;;;;;;13.03;6.73;;;7.60;79.90;;;;;;5053652;28;20915;-68
2021/10/17 01:43:37;;;;;;;18.80;7.57;;;7.60;80.60;;;;;;5053810;28;20470;-68
2021/10/17 01:46:04;;;;;;;13.10;7.03;;;7.60;79.80;;;;;;5053556;28;20947;-67
2021/10/17 01:48:31;;;;;;;14.27;7.00;;;7.60;79.90;;;;;;5053548;28;20912;-67
2021/10/17 01:50:57;;;;;;;16.83;6.23;;;7.60;79.80;;;;;;5053698;28;20488;-67
2021/10/17 01:53:28;;;;;;;23.90;8.67;;;7.60;79.90;;;;;;5053706;28;20449;-68
2021/10/17 01:55:56;;;;;;;15.77;7.17;;;7.60;79.80;;;;;;5053729;28;20430;-67
2021/10/17 01:58:23;;;;;;;15.47;6.77;;;7.60;79.80;;;;;;5053675;28;20453;-67
2021/10/17 02:00:50;;;;;;;15.83;6.43;;;7.60;79.80;;;;;;5053320;28;20442;-67
2021/10/17 02:03:16;;;;;;;12.80;6.47;;;7.60;80.00;;;;;;5053601;28;20445;-67
2021/10/17 02:05:43;;;;;;;18.10;7.73;;;7.60;79.90;;;;;;5053556;28;20450;-68
2021/10/17 02:08:10;;;;;;;13.83;6.47;;;7.60;79.80;;;;;;5053337;28;20939;-68
2021/10/17 02:10:37;;;;;;;10.83;6.10;;;7.50;79.50;;;;;;5053114;28;20472;-67
2021/10/17 02:13:05;;;;;;;13.27;6.37;;;7.50;79.60;;;;;;5053458;28;20450;-67
2021/10/17 02:15:32;;;;;;;11.83;6.87;;;7.50;79.50;;;;;;5053368;28;20461;-67
2021/10/17 02:17:58;;;;;;;12.70;6.90;;;7.50;79.70;;;;;;5053402;28;20449;-67
2021/10/17 02:20:25;;;;;;;12.30;7.90;;;7.50;79.50;;;;;;5053365;28;20453;-67
2021/10/17 02:22:52;;;;;;;18.40;6.07;;;7.40;79.50;;;;;;5053228;28;20465;-67
2021/10/17 02:25:18;;;;;;;9.70;6.93;;;7.50;80.10;;;;;;5054220;28;20470;-67
2021/10/17 02:27:45;;;;;;;9.97;6.87;;;7.40;79.80;;;;;;5053352;28;20434;-67
2021/10/17 02:30:13;;;;;;;11.07;6.93;;;7.40;79.90;;;;;;5052936;28;20456;-67
2021/10/17 02:32:40;;;;;;;10.10;6.40;;;7.40;79.80;;;;;;5053259;28;20457;-67
2021/10/17 02:35:07;;;;;;;12.07;6.77;;;7.40;79.70;;;;;;5053281;28;20461;-68
2021/10/17 02:37:34;;;;;;;11.60;6.70;;;7.40;79.80;;;;;;5052922;28;20947;-68
2021/10/17 02:40:01;;;;;;;7.87;6.23;;;7.40;79.80;;;;;;5053178;28;20449;-67
2021/10/17 02:42:28;;;;;;;12.97;7.10;;;7.30;79.50;;;;;;5053185;28;20448;-67
2021/10/17 02:44:54;;;;;;;15.07;6.20;;;7.30;79.40;;;;;;5053167;28;20469;-68
2021/10/17 02:47:22;;;;;;;10.20;6.97;;;7.30;79.50;;;;;;5052842;28;20965;-68
2021/10/17 02:49:49;;;;;;;8.63;6.77;;;7.30;79.40;;;;;;5053110;28;20456;-67
2021/10/17 02:52:16;;;;;;;11.77;6.63;;;7.20;79.30;;;;;;5052702;28;20484;-67
2021/10/17 02:54:43;;;;;;;14.30;6.60;;;7.20;79.30;;;;;;5053628;28;20469;-67
2021/10/17 02:57:10;;;;;;;11.00;6.40;;;7.20;79.20;;;;;;5053037;28;20789;-67
2021/10/17 02:59:36;;;;;;;9.40;6.27;;;7.10;78.90;;;;;;5053068;28;20875;-67
2021/10/17 03:02:03;;;;;;;11.20;6.00;;;7.10;78.90;;;;;;5052958;28;20441;-67
2021/10/17 03:04:32;;;;;;;13.23;6.70;;;7.00;79.00;;;;;;5052892;28;20470;-68
2021/10/17 03:06:58;;;;;;;6.13;5.53;;;7.00;79.30;;;;;;5052627;28;20943;-67
2021/10/17 03:09:25;;;;;;;8.63;5.67;;;7.00;79.40;;;;;;5052896;28;20446;-67
2021/10/17 03:11:52;;;;;;;9.40;5.50;;;7.00;79.10;;;;;;5053081;28;20485;-67
2021/10/17 03:14:19;;;;;;;10.80;6.10;;;6.90;79.00;;;;;;5052816;28;20461;-68
2021/10/17 03:16:48;;;;;;;8.87;5.60;;;6.90;79.30;;;;;;5052840;28;20520;-67
2021/10/17 03:19:15;;;;;;;13.63;7.70;;;6.90;79.40;;;;;;5052846;28;20528;-67
2021/10/17 03:21:44;;;;;;;8.63;5.87;;;6.90;79.60;;;;;;5054556;28;20449;-67
2021/10/17 03:24:11;;;;;;;9.27;6.07;;;6.80;79.40;;;;;;5056181;28;20492;-68
2021/10/17 03:26:38;;;;;;;11.60;5.67;;;6.80;79.40;;;;;;5056433;28;20556;-67
2021/10/17 03:29:05;;;;;;;9.70;5.70;;;6.70;79.00;;;;;;5056691;28;20472;-67
2021/10/17 03:31:34;;;;;;;9.27;5.07;;;6.70;78.90;;;;;;5055987;28;20484;-67
2021/10/17 03:34:01;;;;;;;11.13;5.40;;;6.60;78.90;;;;;;5056258;28;20560;-67
2021/10/17 03:36:27;;;;;;;10.00;5.80;;;6.60;79.70;;;;;;5056108;28;20912;-67
2021/10/17 03:38:56;;;;;;;8.80;5.17;;;6.60;80.20;;;;;;5056256;28;20449;-67
2021/10/17 03:41:22;;;;;;;9.60;5.67;;;6.70;80.10;;;;;;5056121;28;20437;-67
2021/10/17 03:43:49;;;;;;;8.30;5.23;;;6.60;79.50;;;;;;5056090;28;20473;-67
2021/10/17 03:46:16;;;;;;;9.83;5.57;;;6.60;79.00;;;;;;5056138;28;20505;-67
2021/10/17 03:48:43;;;;;;;7.70;6.10;;;6.50;79.10;;;;;;5055789;28;20430;-67
2021/10/17 03:51:10;;;;;;;6.70;5.07;;;6.50;79.70;;;;;;5055932;28;20492;-67
2021/10/17 03:53:36;;;;;;;8.83;5.53;;;6.50;79.70;;;;;;5055909;28;20444;-67
2021/10/17 03:56:05;;;;;;;10.97;6.43;;;6.50;79.70;;;;;;5055918;28;20456;-67
2021/10/17 03:58:32;;;;;;;8.50;5.27;;;6.50;79.80;;;;;;5055567;28;20445;-67
2021/10/17 04:00:58;;;;;;;9.63;6.27;;;6.50;79.70;;;;;;5055534;28;20935;-67
2021/10/17 04:03:25;;;;;;;7.50;5.33;;;6.40;79.60;;;;;;5055706;28;20821;-68
2021/10/17 04:05:52;;;;;;;16.30;6.83;;;6.40;79.70;;;;;;5055743;28;20445;-67
2021/10/17 04:08:19;;;;;;;10.67;7.40;;;6.40;79.80;;;;;;5055923;28;20445;-67
2021/10/17 04:10:45;;;;;;;12.10;5.60;;;6.50;79.90;;;;;;5055581;28;20452;-67
2021/10/17 04:13:14;;;;;;;15.13;6.17;;;6.50;79.70;;;;;;5055882;28;20445;-67
2021/10/17 04:15:40;;;;;;;11.37;5.77;;;6.50;79.60;;;;;;5055552;28;20474;-67
2021/10/17 04:18:08;;;;;;;8.60;5.33;;;6.50;79.50;;;;;;5055186;28;20962;-67
2021/10/17 04:20:35;;;;;;;13.83;7.67;;;6.50;79.20;;;;;;5055486;28;20449;-67
2021/10/17 04:23:03;;;;;;;7.70;6.27;;;6.50;79.60;;;;;;5055059;28;20461;-67
2021/10/17 04:25:30;;;;;;;9.37;6.17;;;6.40;79.40;;;;;;5055273;28;20501;-67
2021/10/17 04:27:56;;;;;;;10.47;5.47;;;6.40;79.50;;;;;;5055308;28;20450;-67
2021/10/17 04:30:24;;;;;;;15.67;8.40;;;6.40;79.20;;;;;;5055266;28;20448;-67
2021/10/17 04:32:51;;;;;;;8.33;5.87;;;6.40;79.50;;;;;;5054735;28;20484;-67
2021/10/17 04:35:18;;;;;;;12.87;6.90;;;6.40;79.50;;;;;;5055120;28;20472;-67
2021/10/17 04:37:45;;;;;;;8.40;6.40;;;6.40;79.50;;;;;;5055131;28;20441;-67
2021/10/17 04:40:12;;;;;;;10.13;6.47;;;6.40;79.50;;;;;;5055100;28;20449;-67
2021/10/17 04:42:39;;;;;;;10.17;6.37;;;6.40;79.40;;;;;;5055012;28;20445;-67
2021/10/17 04:45:07;;;;;;;8.70;5.47;;;6.30;79.40;;;;;;5055157;28;20465;-67
2021/10/17 04:47:35;;;;;;;10.50;6.73;;;6.40;79.80;;;;;;5054953;28;20456;-67
2021/10/17 04:50:02;;;;;;;12.83;6.03;;;6.30;79.80;;;;;;5054959;28;20433;-67
2021/10/17 04:52:29;;;;;;;11.80;6.83;;;6.30;79.70;;;;;;5054807;28;20484;-67
2021/10/17 04:54:55;;;;;;;9.13;6.63;;;6.30;79.80;;;;;;5054744;28;20473;-67
2021/10/17 04:57:22;;;;;;;11.87;7.13;;;6.40;80.10;;;;;;5054735;28;20457;-67
2021/10/17 04:59:49;;;;;;;7.13;5.90;;;6.30;80.00;;;;;;5054965;28;20468;-67
2021/10/17 05:02:15;;;;;;;13.50;7.27;;;6.30;80.00;;;;;;5054635;28;20456;-67
2021/10/17 05:04:46;;;;;;;11.17;7.03;;;6.30;80.00;;;;;;5054544;28;20472;-67
2021/10/17 05:07:12;;;;;;;8.50;6.60;;;6.30;80.30;;;;;;5054371;28;20431;-67
2021/10/17 05:09:39;;;;;;;13.27;6.67;;;6.30;80.40;;;;;;5054514;28;20454;-67
2021/10/17 05:12:06;;;;;;;15.03;6.73;;;6.30;80.40;;;;;;5054384;28;20504;-67
2021/10/17 05:14:33;;;;;;;11.30;6.53;;;6.30;80.60;;;;;;5054358;28;20469;-67
2021/10/17 05:17:00;;;;;;;9.80;6.37;;;6.30;80.80;;;;;;5054085;28;20958;-67
2021/10/17 05:19:27;;;;;;;9.57;7.47;;;6.30;80.70;;;;;;5054348;28;20449;-67
2021/10/17 05:21:55;;;;;;;9.60;7.00;;;6.30;81.00;;;;;;5054546;28;20438;-67
2021/10/17 05:24:22;;;;;;;9.33;7.23;;;6.30;81.30;;;;;;5054033;28;20484;-67
2021/10/17 05:26:48;;;;;;;10.53;7.50;;;6.30;81.80;;;;;;5054208;28;20810;-67
2021/10/17 05:29:15;;;;;;;10.87;6.77;;;6.40;82.60;;;;;;5053821;28;20974;-67
2021/10/17 05:31:42;;;;;;;10.63;7.13;;;6.40;82.60;;;;;;5053953;28;20492;-67
2021/10/17 05:34:09;;;;;;;9.60;6.60;;;6.30;82.10;;;;;;5054018;28;20472;-67
2021/10/17 05:36:35;;;;;;;11.87;6.80;;;6.40;82.60;;;;;;5054077;28;20456;-67
2021/10/17 05:39:03;;;;;;;11.47;7.83;;;6.40;82.80;;;;;;5053940;28;20460;-67
2021/10/17 05:41:30;;;;;;;10.40;7.00;;;6.40;83.00;;;;;;5053905;28;20445;-67
2021/10/17 05:43:57;;;;;;;9.90;6.80;;;6.40;83.00;;;;;;5053081;28;20469;-67
2021/10/17 05:46:24;;;;;;;8.40;7.10;;;6.40;82.90;;;;;;5053788;28;20445;-67
2021/10/17 05:48:51;;;;;;;9.37;6.43;;;6.40;83.00;;;;;;5053801;28;20450;-67
2021/10/17 05:51:17;;;;;;;11.77;8.20;;;6.40;82.90;;;;;;5053651;28;20445;-67
2021/10/17 05:53:44;;;;;;;15.20;8.47;;;6.40;83.10;;;;;;5054406;28;20557;-67
2021/10/17 05:56:12;;;;;;;16.73;10.67;;;6.40;84.70;;;;;;5053660;28;20453;-67
2021/10/17 05:58:39;;;;;;;23.93;11.20;;;6.40;86.10;;;;;;5053700;28;20822;-67
2021/10/17 06:01:06;;;;;;;13.53;10.83;;;6.50;87.10;;;;;;5053634;28;20472;-67
2021/10/17 06:03:32;;;;;;;14.43;10.20;;;6.60;88.20;;;;;;5053750;28;20450;-67
2021/10/17 06:06:01;;;;;;;14.20;10.20;;;6.60;88.30;;;;;;5053568;28;20446;-67
2021/10/17 06:08:30;;;;;;;15.73;9.60;;;6.70;87.80;;;;;;5053245;28;20453;-67
2021/10/17 06:10:57;;;;;;;16.87;9.50;;;6.60;87.30;;;;;;5053773;28;20450;-67
2021/10/17 06:13:25;;;;;;;13.70;8.57;;;6.60;87.10;;;;;;5053326;28;20481;-68
2021/10/17 06:15:51;;;;;;;10.40;7.73;;;6.60;87.10;;;;;;5053138;28;20441;-67
2021/10/17 06:18:18;;;;;;;11.33;8.00;;;6.60;87.60;;;;;;5053670;28;20450;-67
2021/10/17 06:20:45;;;;;;;14.50;10.90;;;6.70;88.00;;;;;;5053735;28;20449;-67
2021/10/17 06:23:12;;;;;;;14.37;10.07;;;6.70;88.30;;;;;;5054107;28;20449;-67
2021/10/17 06:25:38;;;;;;;12.40;9.87;;;6.80;89.30;;;;;;5053296;28;20468;-67
2021/10/17 06:28:05;;;;;;;14.53;9.40;;;6.80;90.00;;;;;;5053665;28;20441;-67
2021/10/17 06:30:33;;;;;;;14.30;9.03;;;6.90;90.30;;;;;;5053343;28;20437;-67
2021/10/17 06:33:00;;;;;;;14.40;8.60;;;6.90;90.40;;;;;;5053027;28;20554;-67
2021/10/17 06:35:27;;;;;;;14.10;8.60;;;6.90;90.60;;;;;;5053300;28;20473;-67
2021/10/17 06:37:53;;;;;;;13.10;8.63;;;7.00;90.70;;;;;;5053275;28;20460;-67
2021/10/17 06:40:20;;;;;;;13.40;8.87;;;7.10;90.80;;;;;;5054331;28;20450;-66
2021/10/17 06:42:47;;;;;;;14.50;8.30;;;7.10;90.70;;;;;;5056633;28;20449;-66
2021/10/17 06:45:13;;;;;;;14.40;8.77;;;7.20;90.70;;;;;;5055000;28;20474;-66
2021/10/17 06:47:41;;;;;;;12.40;9.50;;;7.30;90.60;;;;;;5053580;28;20449;-67
2021/10/17 06:50:09;;;;;;;16.60;10.40;;;7.40;90.50;;;;;;5052830;28;20438;-67
2021/10/17 06:52:35;;;;;;;12.40;7.60;;;7.40;90.40;;;;;;5053109;28;20530;-67
2021/10/17 06:55:02;;;;;;;16.13;8.30;;;7.50;90.20;;;;;;5053516;28;20822;-67
2021/10/17 06:57:29;;;;;;;15.60;8.40;;;7.60;90.60;;;;;;5057245;28;20453;-67
2021/10/17 06:59:56;;;;;;;13.57;9.37;;;7.70;90.20;;;;;;5057089;28;20441;-67
2021/10/17 07:02:22;;;;;;;14.43;9.43;;;7.70;90.20;;;;;;5056973;28;20449;-67
2021/10/17 07:04:50;;;;;;;12.67;7.43;;;7.80;90.20;;;;;;5056620;28;20464;-67
2021/10/17 07:07:17;;;;;;;11.43;7.73;;;7.80;90.20;;;;;;5057026;28;20456;-67
2021/10/17 07:09:44;;;;;;;17.50;8.73;;;7.90;90.00;;;;;;5056810;28;20441;-67
2021/10/17 07:12:10;;;;;;;15.13;8.43;;;8.00;89.90;;;;;;5056818;28;21006;-67
2021/10/17 07:14:37;;;;;;;18.27;8.03;;;8.00;89.90;;;;;;5057048;28;20465;-67
2021/10/17 07:17:04;;;;;;;12.10;7.77;;;8.00;89.70;;;;;;5056683;28;20429;-67
2021/10/17 07:19:31;;;;;;;9.07;7.70;;;8.10;89.80;;;;;;5056707;28;20453;-67
2021/10/17 07:21:59;;;;;;;13.53;7.83;;;8.10;89.80;;;;;;5056496;28;20915;-67
2021/10/17 07:24:26;;;;;;;13.50;8.83;;;8.20;90.10;;;;;;5056254;28;20481;-67
2021/10/17 07:26:52;;;;;;;11.03;7.80;;;8.30;90.20;;;;;;5056583;28;20452;-69
2021/10/17 07:29:19;;;;;;;10.80;8.40;;;8.30;90.30;;;;;;5056467;28;20448;-69
2021/10/17 07:31:46;;;;;;;22.17;16.17;;;8.40;90.50;;;;;;5056102;28;20939;-69
2021/10/17 07:34:13;;;;;;;15.20;10.63;;;8.50;90.70;;;;;;5056407;28;20465;-69
2021/10/17 07:36:39;;;;;;;9.60;7.30;;;8.60;90.80;;;;;;5056437;28;20472;-69
2021/10/17 07:39:10;;;;;;;13.23;8.10;;;8.60;90.40;;;;;;5056319;28;20456;-69
2021/10/17 07:41:38;;;;;;;15.00;8.17;;;8.70;89.90;;;;;;5056301;28;20468;-69
2021/10/17 07:44:05;;;;;;;18.73;8.27;;;8.80;90.10;;;;;;5056107;28;20963;-70
2021/10/17 07:46:33;;;;;;;10.90;8.37;;;8.80;90.10;;;;;;5056120;28;20453;-69
2021/10/17 07:49:00;;;;;;;13.60;10.10;;;8.90;90.30;;;;;;5056081;28;20450;-69
2021/10/17 07:51:27;;;;;;;21.93;12.57;;;9.00;90.30;;;;;;5056110;28;20448;-69
2021/10/17 07:53:54;;;;;;;13.60;9.40;;;9.10;90.50;;;;;;5055710;28;20498;-69
2021/10/17 07:56:22;;;;;;;16.30;8.20;;;9.20;90.50;;;;;;5056211;28;20477;-69
2021/10/17 07:58:50;;;;;;;8.53;6.73;;;9.30;88.40;;;;;;5055691;28;20453;-69
2021/10/17 08:01:17;;;;;;;11.73;7.40;;;9.40;86.60;;;;;;5055718;28;20449;-69
2021/10/17 08:03:43;;;;;;;14.10;7.60;;;9.40;86.10;;;;;;5055522;28;20473;-69
2021/10/17 08:06:10;;;;;;;15.33;10.17;;;9.50;86.30;;;;;;5055674;28;20442;-69
2021/10/17 08:08:37;;;;;;;12.73;8.23;;;9.60;86.90;;;;;;5055140;28;20452;-69
2021/10/17 08:11:04;;;;;;;10.00;7.13;;;9.70;87.90;;;;;;5055451;28;20977;-69
2021/10/17 08:13:32;;;;;;;9.00;6.80;;;9.80;87.90;;;;;;5055485;28;20591;-72
2021/10/17 08:15:59;;;;;;;9.13;6.20;;;9.90;87.30;;;;;;5055350;28;20912;-72
2021/10/17 08:18:26;;;;;;;10.87;5.80;;;10.00;85.20;;;;;;5055787;28;20450;-72
2021/10/17 08:20:53;;;;;;;12.67;6.67;;;10.20;84.50;;;;;;5055528;28;20430;-68
2021/10/17 08:23:20;;;;;;;10.60;8.00;;;10.30;83.70;;;;;;5055022;28;20481;-69
2021/10/17 08:25:47;;;;;;;12.27;8.53;;;10.40;83.10;;;;;;5054916;28;20446;-71
2021/10/17 08:28:15;;;;;;;12.07;7.23;;;10.60;83.60;;;;;;5055311;28;20472;-71
2021/10/17 08:30:44;;;;;;;14.40;10.53;;;10.70;83.40;;;;;;5055297;28;20444;-71
2021/10/17 08:33:11;;;;;;;16.10;8.10;;;10.90;82.70;;;;;;5055267;28;20481;-71
2021/10/17 08:35:38;;;;;;;10.97;7.60;;;11.00;82.00;;;;;;5055077;28;20478;-72
2021/10/17 08:38:05;;;;;;;9.00;6.50;;;11.20;81.40;;;;;;5055056;28;20450;-68
2021/10/17 08:40:31;;;;;;;11.30;7.45;;;11.30;80.60;;;;;;5053821;28;20435;-70
2021/10/17 08:42:59;;;;;;;12.53;10.23;;;11.50;78.20;;;;;;5054755;28;20562;-71
2021/10/17 08:45:26;;;;;;;14.73;10.60;;;11.60;78.70;;;;;;5054740;28;20488;-71
2021/10/17 08:47:54;;;;;;;18.93;9.80;;;11.70;78.50;;;;;;5054720;28;20452;-71
2021/10/17 08:50:21;;;;;;;12.53;9.10;;;11.80;78.20;;;;;;5054801;28;20445;-71
2021/10/17 08:52:48;;;;;;;16.80;9.20;;;11.80;77.60;;;;;;5055185;28;20808;-71
2021/10/17 08:55:16;;;;;;;15.97;9.77;;;11.90;77.50;;;;;;5054826;28;20465;-71
2021/10/17 08:57:43;;;;;;;9.97;8.83;;;12.00;78.10;;;;;;5054574;28;20784;-71
2021/10/17 09:00:27;;;;;;;13.50;9.63;;;12.10;77.20;;;;;;5054276;28;20947;-69
2021/10/17 09:02:55;;;;;;;14.63;8.80;;;12.20;77.40;;;;;;5054653;28;20453;-71
2021/10/17 09:05:34;;;;;;;11.43;8.80;;;12.30;78.30;;;;;;5054529;28;20476;-71
2021/10/17 09:08:01;;;;;;;13.10;8.47;;;12.40;78.30;;;;;;5054642;28;20771;-70
2021/10/17 09:10:28;;;;;;;11.57;8.67;;;12.60;77.70;;;;;;5054127;28;20437;-69
2021/10/17 09:13:06;;;;;;;13.77;9.17;;;12.80;77.00;;;;;;5054391;28;20559;-69
2021/10/17 09:15:33;;;;;;;11.57;9.17;;;12.90;76.30;;;;;;5054243;28;20465;-69
2021/10/17 09:18:08;;;;;;;12.30;8.50;;;13.10;75.80;;;;;;5053869;28;20445;-69
2021/10/17 09:20:37;;;;;;;13.93;9.80;;;13.20;75.40;;;;;;5054195;28;20426;-72
2021/10/17 09:23:06;;;;;;;17.70;9.33;;;13.40;74.90;;;;;;5053999;28;20967;-73
2021/10/17 09:25:34;;;;;;;15.87;9.77;;;13.50;74.60;;;;;;5054080;28;20466;-73
2021/10/17 09:28:01;;;;;;;11.27;8.50;;;13.60;74.50;;;;;;5054583;28;20446;-74
2021/10/17 09:30:28;;;;;;;13.33;9.00;;;13.80;74.20;;;;;;5053938;28;20437;-68
2021/10/17 09:35:48;;;;;;;8.10;7.30;;;13.90;73.90;;;;;;5132252;27;20989;-67
2021/10/17 09:38:17;;;;;;;10.17;7.20;;;14.10;72.30;;;;;;5131803;27;20434;-69
2021/10/17 09:40:46;;;;;;;9.93;7.90;;;14.30;71.20;;;;;;5131813;27;20473;-69
2021/10/17 09:43:21;;;;;;;14.70;9.13;;;14.40;71.40;;;;;;5131750;27;20438;-69
2021/10/17 09:45:48;;;;;;;11.27;7.90;;;14.60;71.00;;;;;;5131720;27;20422;-69
2021/10/17 09:48:29;;;;;;;11.03;7.33;;;14.60;70.20;;;;;;5131620;27;20445;-69
2021/10/17 09:51:02;;;;;;;11.40;8.47;;;14.80;70.00;;;;;;5131664;27;20423;-69
2021/10/17 09:53:42;;;;;;;14.43;9.60;;;14.80;68.60;;;;;;5131127;27;20879;-69
2021/10/17 09:56:09;;;;;;;14.53;8.37;;;14.90;67.60;;;;;;5131576;27;20450;-69
2021/10/17 09:58:36;;;;;;;10.63;8.33;;;14.90;67.10;;;;;;5131449;27;20453;-69
2021/10/17 10:01:04;;;;;;;8.90;6.97;;;15.00;68.30;;;;;;5131502;27;20438;-69
2021/10/17 10:03:32;;;;;;;14.40;7.60;;;15.30;69.50;;;;;;5131073;27;20442;-69
2021/10/17 10:06:01;;;;;;;10.97;7.33;;;15.50;68.80;;;;;;5131223;27;20442;-70
2021/10/17 10:08:29;;;;;;;9.00;7.00;;;15.90;66.40;;;;;;5131014;27;20931;-70
2021/10/17 10:10:56;;;;;;;11.40;7.10;;;16.20;65.20;;;;;;5130858;27;20943;-70
2021/10/17 10:13:24;;;;;;;8.60;6.50;;;16.60;62.30;;;;;;5131081;27;20449;-70
2021/10/17 10:15:52;;;;;;;12.53;7.20;;;17.00;59.30;;;;;;5130656;27;20998;-70
2021/10/17 10:18:21;;;;;;;8.20;6.00;;;17.30;58.20;;;;;;5131085;27;20449;-70
2021/10/17 10:20:48;;;;;;;7.13;6.43;;;17.60;56.00;;;;;;5130748;27;20442;-70
2021/10/17 10:23:16;;;;;;;9.83;5.87;;;17.70;54.60;;;;;;5130656;27;20439;-70
2021/10/17 10:25:44;;;;;;;9.30;6.13;;;17.70;54.30;;;;;;5130773;27;20469;-70
2021/10/17 10:28:13;;;;;;;13.43;8.00;;;17.70;54.60;;;;;;5130535;27;20939;-70
2021/10/17 10:30:40;;;;;;;13.03;6.40;;;17.70;55.20;;;;;;5130805;27;20799;-70
2021/10/17 10:33:15;;;;;;;9.40;6.93;;;17.90;54.20;;;;;;5130309;27;20484;-70
2021/10/17 10:36:01;;;;;;;11.53;6.60;;;18.00;54.30;;;;;;5130158;27;20864;-70
2021/10/17 10:39:14;;;;;;;13.37;8.00;;;18.20;54.10;;;;;;5130991;27;20449;-70
2021/10/17 10:41:51;;;;;;;11.50;6.63;;;18.30;53.80;;;;;;5130353;27;20422;-69
2021/10/17 10:44:20;;;;;;;10.53;7.27;;;18.50;54.60;;;;;;5130577;27;20466;-69
2021/10/17 10:46:49;;;;;;;9.90;5.60;;;18.70;54.60;;;;;;5118842;27;20439;-70
2021/10/17 10:49:46;;;;;;;9.70;5.20;;;18.90;53.00;;;;;;5117141;28;20442;-70
2021/10/17 10:52:44;;;;;;;8.47;4.60;;;18.90;50.60;;;;;;5116917;28;20427;-70
2021/10/17 10:55:31;;;;;;;6.60;4.30;;;18.80;50.30;;;;;;5116603;28;20494;-69
2021/10/17 10:58:23;;;;;;;7.47;5.27;;;19.00;50.90;;;;;;5116732;27;20438;-68
2021/10/17 11:00:50;;;;;;;6.20;3.90;;;19.30;50.80;;;;;;5116707;28;20431;-68
2021/10/17 11:03:18;;;;;;;6.20;3.30;;;19.50;47.40;;;;;;5116566;28;20478;-68
2021/10/17 11:06:16;;;;;;;4.30;3.07;;;19.30;45.90;;;;;;5116678;28;20455;-68
2021/10/17 11:08:43;;;;;;;7.93;3.47;;;19.30;46.40;;;;;;5116375;28;20879;-68
2021/10/17 11:11:10;;;;;;;7.10;3.60;;;19.40;46.70;;;;;;5116369;28;20434;-68
2021/10/17 11:13:41;;;;;;;4.47;3.63;;;19.40;46.50;;;;;;5116356;27;20447;-68
2021/10/17 11:16:09;;;;;;;6.27;4.50;;;19.40;46.40;;;;;;5116419;28;20542;-68
2021/10/17 11:18:40;;;;;;;5.37;4.07;;;19.40;46.60;;;;;;5116413;28;20455;-68
2021/10/17 11:21:08;;;;;;;5.27;3.33;;;19.50;45.40;;;;;;5116090;28;20438;-68
2021/10/17 11:23:37;;;;;;;4.70;2.30;;;19.50;44.60;;;;;;5116144;28;20896;-67
2021/10/17 11:26:06;;;;;;;6.40;3.27;;;19.40;44.20;;;;;;5115873;28;20956;-67
2021/10/17 11:28:34;;;;;;;6.33;3.03;;;19.50;44.80;;;;;;5116065;27;20446;-67
2021/10/17 11:31:05;;;;;;;3.83;2.50;;;19.60;43.90;;;;;;5116176;27;20431;-67
2021/10/17 11:33:33;;;;;;;6.97;3.00;;;19.80;44.80;;;;;;5115785;28;20501;-67
2021/10/17 11:36:00;;;;;;;4.73;3.27;;;19.90;44.10;;;;;;5115401;28;20983;-67
2021/10/17 11:38:28;;;;;;;5.00;3.13;;;20.20;44.40;;;;;;5116013;28;20450;-67
2021/10/17 11:41:06;;;;;;;3.90;2.50;;;20.50;44.50;;;;;;5115900;28;20439;-67
2021/10/17 11:43:39;;;;;;;5.00;3.20;;;20.70;43.50;;;;;;5115818;28;20515;-67
2021/10/17 11:46:09;;;;;;;3.80;3.00;;;20.90;42.30;;;;;;5115492;28;20473;-67
2021/10/17 11:48:37;;;;;;;4.00;2.57;;;21.00;42.20;;;;;;5115457;28;20450;-69
2021/10/17 11:51:06;;;;;;;4.50;3.20;;;21.10;41.50;;;;;;5115668;28;20437;-68
2021/10/17 11:53:34;;;;;;;4.33;3.27;;;21.20;41.60;;;;;;5115884;28;20449;-68
2021/10/17 11:56:01;;;;;;;7.97;4.70;;;21.30;41.40;;;;;;5115583;28;20891;-68
2021/10/17 11:58:30;;;;;;;6.17;3.60;;;21.30;41.90;;;;;;5114585;28;20438;-68
2021/10/17 12:01:05;;;;;;;4.80;2.93;;;21.40;41.30;;;;;;5115636;28;20458;-68
2021/10/17 12:03:33;;;;;;;3.60;3.07;;;21.40;41.40;;;;;;5115749;28;20434;-69
2021/10/17 12:06:02;;;;;;;4.80;2.90;;;21.50;41.40;;;;;;5115398;28;20628;-68
2021/10/17 12:08:31;;;;;;;5.60;3.10;;;21.40;40.90;;;;;;5115324;28;20486;-68
2021/10/17 12:11:00;;;;;;;3.70;2.80;;;21.30;41.30;;;;;;5115190;28;20453;-68
2021/10/17 12:13:28;;;;;;;3.30;2.73;;;21.20;41.40;;;;;;5115033;28;20523;-69
2021/10/17 12:16:06;;;;;;;5.67;3.17;;;21.30;41.20;;;;;;5114937;28;20478;-68
2021/10/17 12:18:35;;;;;;;6.93;3.33;;;21.20;40.30;;;;;;5115075;28;20427;-68
2021/10/17 12:21:03;;;;;;;5.37;3.00;;;21.20;40.50;;;;;;5114874;28;20488;-68
2021/10/17 12:23:30;;;;;;;5.60;3.80;;;21.30;41.50;;;;;;5114825;28;20431;-69
2021/10/17 12:25:57;;;;;;;5.10;3.00;;;21.50;40.40;;;;;;5114866;28;20463;-68
2021/10/17 12:28:24;;;;;;;5.10;2.67;;;21.60;39.70;;;;;;5114786;28;20443;-68
2021/10/17 12:30:54;;;;;;;4.93;2.37;;;21.70;39.00;;;;;;5114769;28;20802;-68
2021/10/17 12:33:32;;;;;;;4.03;2.53;;;21.80;40.30;;;;;;5114708;28;20464;-68
2021/10/17 12:36:03;;;;;;;3.77;2.10;;;22.00;39.70;;;;;;5114773;28;20469;-68
2021/10/17 12:38:32;;;;;;;4.27;2.30;;;22.10;37.90;;;;;;5114805;28;20518;-68
2021/10/17 12:41:01;;;;;;;3.27;2.10;;;22.20;37.80;;;;;;5115040;28;20423;-68
2021/10/17 12:43:30;;;;;;;3.13;2.17;;;22.30;38.50;;;;;;5114654;27;20446;-69
2021/10/17 12:46:08;;;;;;;3.10;1.90;;;22.30;38.60;;;;;;5114626;28;20525;-68
2021/10/17 12:48:36;;;;;;;2.40;1.67;;;22.30;38.10;;;;;;5114602;28;20427;-68
2021/10/17 12:51:25;;;;;;;3.70;2.03;;;22.20;37.50;;;;;;5114555;28;20450;-73
2021/10/17 12:54:06;;;;;;;2.30;1.73;;;22.20;37.10;;;;;;5114207;28;20467;-74